sensor_id;sensor_type;location;lat;lon;timestamp;P1;durP1;ratioP1;P2;durP2;ratioP2
7545;SDS011;3814;51.454;12.616;2023-04-24T00:00:14;5.43;;;3.00;;
7545;SDS011;3814;51.454;12.616;2023-04-24T00:02:44;4.50;;;2.90;;
7545;SDS011;3814;51.454;12.616;2023-04-24T00:05:15;4.70;;;2.90;;
7545;SDS011;3814;51.454;12.616;2023-04-24T00:07:42;4.53;;;2.80;;
7545;SDS011;3814;51.454;12.616;2023-04-24T00:10:07;4.93;;;2.60;;
7545;SDS011;3814;51.454;12.616;2023-04-24T00:12:33;5.68;;;2.95;;
7545;SDS011;3814;51.454;12.616;2023-04-24T00:14:59;6.00;;;3.10;;
7545;SDS011;3814;51.454;12.616;2023-04-24T00:17:24;5.38;;;2.92;;
7545;SDS011;3814;51.454;12.616;2023-04-24T00:19:50;4.32;;;2.90;;
7545;SDS011;3814;51.454;12.616;2023-04-24T00:22:16;4.75;;;2.92;;
7545;SDS011;3814;51.454;12.616;2023-04-24T00:24:42;4.63;;;2.85;;
7545;SDS011;3814;51.454;12.616;2023-04-24T00:27:07;4.35;;;2.70;;
7545;SDS011;3814;51.454;12.616;2023-04-24T00:29:32;5.20;;;2.67;;
7545;SDS011;3814;51.454;12.616;2023-04-24T00:31:57;4.70;;;2.60;;
7545;SDS011;3814;51.454;12.616;2023-04-24T00:34:23;4.38;;;2.30;;
7545;SDS011;3814;51.454;12.616;2023-04-24T00:36:48;4.38;;;2.33;;
7545;SDS011;3814;51.454;12.616;2023-04-24T00:39:20;3.33;;;2.10;;
7545;SDS011;3814;51.454;12.616;2023-04-24T00:41:45;4.95;;;2.85;;
7545;SDS011;3814;51.454;12.616;2023-04-24T00:44:12;5.28;;;2.47;;
7545;SDS011;3814;51.454;12.616;2023-04-24T00:46:37;4.30;;;2.67;;
7545;SDS011;3814;51.454;12.616;2023-04-24T00:49:02;3.47;;;2.20;;
7545;SDS011;3814;51.454;12.616;2023-04-24T00:51:29;3.13;;;2.00;;
7545;SDS011;3814;51.454;12.616;2023-04-24T00:53:55;2.88;;;1.73;;
7545;SDS011;3814;51.454;12.616;2023-04-24T00:56:21;2.78;;;1.70;;
7545;SDS011;3814;51.454;12.616;2023-04-24T00:58:46;2.65;;;1.60;;
7545;SDS011;3814;51.454;12.616;2023-04-24T01:01:12;2.67;;;1.60;;
7545;SDS011;3814;51.454;12.616;2023-04-24T01:03:37;3.40;;;1.70;;
7545;SDS011;3814;51.454;12.616;2023-04-24T01:06:02;2.58;;;1.50;;
7545;SDS011;3814;51.454;12.616;2023-04-24T01:08:28;3.63;;;1.60;;
7545;SDS011;3814;51.454;12.616;2023-04-24T01:10:54;3.38;;;1.50;;
7545;SDS011;3814;51.454;12.616;2023-04-24T01:13:20;2.13;;;1.27;;
7545;SDS011;3814;51.454;12.616;2023-04-24T01:15:46;2.15;;;1.30;;
7545;SDS011;3814;51.454;12.616;2023-04-24T01:18:12;2.67;;;1.33;;
7545;SDS011;3814;51.454;12.616;2023-04-24T01:20:39;1.63;;;1.20;;
7545;SDS011;3814;51.454;12.616;2023-04-24T01:23:05;2.20;;;1.10;;
7545;SDS011;3814;51.454;12.616;2023-04-24T01:25:31;1.90;;;1.20;;
7545;SDS011;3814;51.454;12.616;2023-04-24T01:27:57;2.17;;;1.40;;
7545;SDS011;3814;51.454;12.616;2023-04-24T01:30:23;2.03;;;1.17;;
7545;SDS011;3814;51.454;12.616;2023-04-24T01:32:48;2.42;;;1.38;;
7545;SDS011;3814;51.454;12.616;2023-04-24T01:35:13;2.15;;;1.42;;
7545;SDS011;3814;51.454;12.616;2023-04-24T01:37:39;3.30;;;1.20;;
7545;SDS011;3814;51.454;12.616;2023-04-24T01:40:05;3.42;;;1.27;;
7545;SDS011;3814;51.454;12.616;2023-04-24T01:42:31;1.70;;;1.10;;
7545;SDS011;3814;51.454;12.616;2023-04-24T01:44:57;4.05;;;1.10;;
7545;SDS011;3814;51.454;12.616;2023-04-24T01:47:22;2.25;;;1.20;;
7545;SDS011;3814;51.454;12.616;2023-04-24T01:49:48;2.05;;;1.20;;
7545;SDS011;3814;51.454;12.616;2023-04-24T01:52:15;1.98;;;1.10;;
7545;SDS011;3814;51.454;12.616;2023-04-24T01:54:41;4.40;;;1.23;;
7545;SDS011;3814;51.454;12.616;2023-04-24T01:57:06;4.13;;;1.10;;
7545;SDS011;3814;51.454;12.616;2023-04-24T01:59:32;2.45;;;1.20;;
7545;SDS011;3814;51.454;12.616;2023-04-24T02:01:58;2.60;;;1.25;;
7545;SDS011;3814;51.454;12.616;2023-04-24T02:04:23;1.92;;;1.10;;
7545;SDS011;3814;51.454;12.616;2023-04-24T02:06:48;1.90;;;1.02;;
7545;SDS011;3814;51.454;12.616;2023-04-24T02:09:14;2.03;;;1.20;;
7545;SDS011;3814;51.454;12.616;2023-04-24T02:11:39;1.80;;;1.20;;
7545;SDS011;3814;51.454;12.616;2023-04-24T02:14:04;1.63;;;0.95;;
7545;SDS011;3814;51.454;12.616;2023-04-24T02:16:30;3.42;;;0.90;;
7545;SDS011;3814;51.454;12.616;2023-04-24T02:18:57;1.42;;;0.90;;
7545;SDS011;3814;51.454;12.616;2023-04-24T02:21:22;2.17;;;0.90;;
7545;SDS011;3814;51.454;12.616;2023-04-24T02:23:48;2.85;;;1.00;;
7545;SDS011;3814;51.454;12.616;2023-04-24T02:26:13;2.22;;;1.00;;
7545;SDS011;3814;51.454;12.616;2023-04-24T02:28:38;1.90;;;1.00;;
7545;SDS011;3814;51.454;12.616;2023-04-24T02:31:04;1.45;;;0.98;;
7545;SDS011;3814;51.454;12.616;2023-04-24T02:33:31;2.75;;;1.00;;
7545;SDS011;3814;51.454;12.616;2023-04-24T02:35:56;2.10;;;1.10;;
7545;SDS011;3814;51.454;12.616;2023-04-24T02:38:21;1.75;;;1.02;;
7545;SDS011;3814;51.454;12.616;2023-04-24T02:40:47;2.08;;;1.10;;
7545;SDS011;3814;51.454;12.616;2023-04-24T02:43:12;2.55;;;1.10;;
7545;SDS011;3814;51.454;12.616;2023-04-24T02:45:37;1.70;;;1.10;;
7545;SDS011;3814;51.454;12.616;2023-04-24T02:48:03;1.92;;;1.08;;
7545;SDS011;3814;51.454;12.616;2023-04-24T02:50:28;3.97;;;1.15;;
7545;SDS011;3814;51.454;12.616;2023-04-24T02:52:54;4.20;;;1.25;;
7545;SDS011;3814;51.454;12.616;2023-04-24T02:55:19;2.30;;;1.30;;
7545;SDS011;3814;51.454;12.616;2023-04-24T02:57:44;4.45;;;1.17;;
7545;SDS011;3814;51.454;12.616;2023-04-24T03:00:10;1.90;;;1.20;;
7545;SDS011;3814;51.454;12.616;2023-04-24T03:02:36;1.90;;;1.20;;
7545;SDS011;3814;51.454;12.616;2023-04-24T03:05:01;1.70;;;1.05;;
7545;SDS011;3814;51.454;12.616;2023-04-24T03:07:27;2.53;;;1.15;;
7545;SDS011;3814;51.454;12.616;2023-04-24T03:09:52;2.50;;;1.17;;
7545;SDS011;3814;51.454;12.616;2023-04-24T03:12:18;3.03;;;1.13;;
7545;SDS011;3814;51.454;12.616;2023-04-24T03:14:43;2.78;;;1.08;;
7545;SDS011;3814;51.454;12.616;2023-04-24T03:17:09;2.17;;;1.10;;
7545;SDS011;3814;51.454;12.616;2023-04-24T03:19:34;2.58;;;1.17;;
7545;SDS011;3814;51.454;12.616;2023-04-24T03:22:01;1.73;;;1.05;;
7545;SDS011;3814;51.454;12.616;2023-04-24T03:24:27;2.80;;;1.20;;
7545;SDS011;3814;51.454;12.616;2023-04-24T03:26:52;2.10;;;1.10;;
7545;SDS011;3814;51.454;12.616;2023-04-24T03:29:18;2.53;;;1.05;;
7545;SDS011;3814;51.454;12.616;2023-04-24T03:31:43;2.88;;;1.23;;
7545;SDS011;3814;51.454;12.616;2023-04-24T03:34:08;2.33;;;1.30;;
7545;SDS011;3814;51.454;12.616;2023-04-24T03:36:34;2.10;;;1.10;;
7545;SDS011;3814;51.454;12.616;2023-04-24T03:38:59;3.05;;;1.20;;
7545;SDS011;3814;51.454;12.616;2023-04-24T03:41:25;2.10;;;1.10;;
7545;SDS011;3814;51.454;12.616;2023-04-24T03:43:50;4.20;;;1.13;;
7545;SDS011;3814;51.454;12.616;2023-04-24T03:46:15;1.85;;;1.20;;
7545;SDS011;3814;51.454;12.616;2023-04-24T03:48:41;2.30;;;1.25;;
7545;SDS011;3814;51.454;12.616;2023-04-24T03:51:06;1.70;;;1.10;;
7545;SDS011;3814;51.454;12.616;2023-04-24T03:53:31;2.50;;;1.20;;
7545;SDS011;3814;51.454;12.616;2023-04-24T03:55:57;2.33;;;1.20;;
7545;SDS011;3814;51.454;12.616;2023-04-24T03:58:22;2.08;;;1.25;;
7545;SDS011;3814;51.454;12.616;2023-04-24T04:00:47;2.35;;;1.23;;
7545;SDS011;3814;51.454;12.616;2023-04-24T04:03:13;1.98;;;1.30;;
7545;SDS011;3814;51.454;12.616;2023-04-24T04:05:39;2.20;;;1.20;;
7545;SDS011;3814;51.454;12.616;2023-04-24T04:08:04;2.33;;;1.30;;
7545;SDS011;3814;51.454;12.616;2023-04-24T04:10:30;3.22;;;1.40;;
7545;SDS011;3814;51.454;12.616;2023-04-24T04:12:55;2.83;;;1.25;;
7545;SDS011;3814;51.454;12.616;2023-04-24T04:15:20;2.25;;;1.10;;
7545;SDS011;3814;51.454;12.616;2023-04-24T04:17:46;2.38;;;1.25;;
7545;SDS011;3814;51.454;12.616;2023-04-24T04:20:11;2.75;;;1.40;;
7545;SDS011;3814;51.454;12.616;2023-04-24T04:22:37;3.75;;;1.42;;
7545;SDS011;3814;51.454;12.616;2023-04-24T04:25:03;2.03;;;1.30;;
7545;SDS011;3814;51.454;12.616;2023-04-24T04:27:29;1.90;;;1.20;;
7545;SDS011;3814;51.454;12.616;2023-04-24T04:29:57;2.38;;;1.35;;
7545;SDS011;3814;51.454;12.616;2023-04-24T04:32:30;1.77;;;1.10;;
7545;SDS011;3814;51.454;12.616;2023-04-24T04:34:58;2.85;;;1.45;;
7545;SDS011;3814;51.454;12.616;2023-04-24T04:37:23;3.65;;;1.60;;
7545;SDS011;3814;51.454;12.616;2023-04-24T04:39:48;2.65;;;1.50;;
7545;SDS011;3814;51.454;12.616;2023-04-24T04:42:14;2.63;;;1.67;;
7545;SDS011;3814;51.454;12.616;2023-04-24T04:44:40;2.20;;;1.33;;
7545;SDS011;3814;51.454;12.616;2023-04-24T04:47:05;2.55;;;1.50;;
7545;SDS011;3814;51.454;12.616;2023-04-24T04:49:32;3.05;;;1.70;;
7545;SDS011;3814;51.454;12.616;2023-04-24T04:51:57;2.60;;;1.50;;
7545;SDS011;3814;51.454;12.616;2023-04-24T04:54:22;4.65;;;1.58;;
7545;SDS011;3814;51.454;12.616;2023-04-24T04:56:51;4.28;;;2.63;;
7545;SDS011;3814;51.454;12.616;2023-04-24T04:59:16;4.15;;;2.15;;
7545;SDS011;3814;51.454;12.616;2023-04-24T05:01:44;3.35;;;1.80;;
7545;SDS011;3814;51.454;12.616;2023-04-24T05:04:10;5.00;;;1.60;;
7545;SDS011;3814;51.454;12.616;2023-04-24T05:06:35;3.28;;;1.48;;
7545;SDS011;3814;51.454;12.616;2023-04-24T05:11:33;2.70;;;1.73;;
7545;SDS011;3814;51.454;12.616;2023-04-24T05:13:59;2.15;;;1.40;;
7545;SDS011;3814;51.454;12.616;2023-04-24T05:16:25;2.85;;;1.67;;
7545;SDS011;3814;51.454;12.616;2023-04-24T05:18:50;3.42;;;1.70;;
7545;SDS011;3814;51.454;12.616;2023-04-24T05:21:15;2.72;;;1.90;;
7545;SDS011;3814;51.454;12.616;2023-04-24T05:23:41;2.92;;;1.70;;
7545;SDS011;3814;51.454;12.616;2023-04-24T05:26:06;3.92;;;1.90;;
7545;SDS011;3814;51.454;12.616;2023-04-24T05:28:32;4.32;;;1.80;;
7545;SDS011;3814;51.454;12.616;2023-04-24T05:30:57;2.85;;;1.75;;
7545;SDS011;3814;51.454;12.616;2023-04-24T05:33:24;2.40;;;1.60;;
7545;SDS011;3814;51.454;12.616;2023-04-24T05:35:49;2.60;;;1.73;;
7545;SDS011;3814;51.454;12.616;2023-04-24T05:38:14;2.38;;;1.50;;
7545;SDS011;3814;51.454;12.616;2023-04-24T05:40:42;3.70;;;1.60;;
7545;SDS011;3814;51.454;12.616;2023-04-24T05:43:08;3.58;;;1.70;;
7545;SDS011;3814;51.454;12.616;2023-04-24T05:45:33;2.25;;;1.40;;
7545;SDS011;3814;51.454;12.616;2023-04-24T05:48:00;2.47;;;1.38;;
7545;SDS011;3814;51.454;12.616;2023-04-24T05:50:26;3.63;;;1.50;;
7545;SDS011;3814;51.454;12.616;2023-04-24T05:52:51;3.88;;;1.60;;
7545;SDS011;3814;51.454;12.616;2023-04-24T05:55:17;3.38;;;1.73;;
7545;SDS011;3814;51.454;12.616;2023-04-24T05:57:43;4.38;;;1.73;;
7545;SDS011;3814;51.454;12.616;2023-04-24T06:00:09;3.70;;;1.80;;
7545;SDS011;3814;51.454;12.616;2023-04-24T06:02:37;2.38;;;1.67;;
7545;SDS011;3814;51.454;12.616;2023-04-24T06:05:02;3.55;;;1.58;;
7545;SDS011;3814;51.454;12.616;2023-04-24T06:07:27;4.53;;;1.70;;
7545;SDS011;3814;51.454;12.616;2023-04-24T06:09:53;2.75;;;1.42;;
7545;SDS011;3814;51.454;12.616;2023-04-24T06:12:21;2.28;;;1.50;;
7545;SDS011;3814;51.454;12.616;2023-04-24T06:14:46;4.20;;;1.58;;
7545;SDS011;3814;51.454;12.616;2023-04-24T06:17:12;3.38;;;1.40;;
7545;SDS011;3814;51.454;12.616;2023-04-24T06:19:37;2.95;;;1.33;;
7545;SDS011;3814;51.454;12.616;2023-04-24T06:22:02;2.40;;;1.40;;
7545;SDS011;3814;51.454;12.616;2023-04-24T06:24:28;2.17;;;1.00;;
7545;SDS011;3814;51.454;12.616;2023-04-24T06:26:54;2.42;;;0.90;;
7545;SDS011;3814;51.454;12.616;2023-04-24T06:29:19;1.42;;;0.90;;
7545;SDS011;3814;51.454;12.616;2023-04-24T06:31:45;2.38;;;1.00;;
7545;SDS011;3814;51.454;12.616;2023-04-24T06:34:10;3.25;;;0.93;;
7545;SDS011;3814;51.454;12.616;2023-04-24T06:36:35;4.13;;;1.00;;
7545;SDS011;3814;51.454;12.616;2023-04-24T06:39:01;1.45;;;0.90;;
7545;SDS011;3814;51.454;12.616;2023-04-24T06:41:26;2.08;;;0.93;;
7545;SDS011;3814;51.454;12.616;2023-04-24T06:43:52;1.60;;;1.00;;
7545;SDS011;3814;51.454;12.616;2023-04-24T06:46:18;2.03;;;0.98;;
7545;SDS011;3814;51.454;12.616;2023-04-24T06:48:43;1.42;;;0.90;;
7545;SDS011;3814;51.454;12.616;2023-04-24T06:51:08;2.53;;;0.93;;
7545;SDS011;3814;51.454;12.616;2023-04-24T06:53:34;2.00;;;1.10;;
7545;SDS011;3814;51.454;12.616;2023-04-24T06:55:59;2.08;;;1.00;;
7545;SDS011;3814;51.454;12.616;2023-04-24T06:58:25;1.88;;;1.00;;
7545;SDS011;3814;51.454;12.616;2023-04-24T07:00:50;1.85;;;1.00;;
7545;SDS011;3814;51.454;12.616;2023-04-24T07:03:16;6.47;;;1.15;;
7545;SDS011;3814;51.454;12.616;2023-04-24T07:05:41;1.67;;;1.10;;
7545;SDS011;3814;51.454;12.616;2023-04-24T07:08:06;3.30;;;0.93;;
7545;SDS011;3814;51.454;12.616;2023-04-24T07:10:32;2.92;;;1.00;;
7545;SDS011;3814;51.454;12.616;2023-04-24T07:12:59;2.95;;;1.10;;
7545;SDS011;3814;51.454;12.616;2023-04-24T07:15:24;3.30;;;1.20;;
7545;SDS011;3814;51.454;12.616;2023-04-24T07:17:49;2.03;;;1.30;;
7545;SDS011;3814;51.454;12.616;2023-04-24T07:20:15;2.35;;;1.40;;
7545;SDS011;3814;51.454;12.616;2023-04-24T07:22:40;2.35;;;1.30;;
7545;SDS011;3814;51.454;12.616;2023-04-24T07:25:06;2.72;;;1.50;;
7545;SDS011;3814;51.454;12.616;2023-04-24T07:27:32;2.00;;;1.20;;
7545;SDS011;3814;51.454;12.616;2023-04-24T07:29:58;2.60;;;1.45;;
7545;SDS011;3814;51.454;12.616;2023-04-24T07:32:23;2.30;;;1.40;;
7545;SDS011;3814;51.454;12.616;2023-04-24T07:34:49;2.38;;;1.20;;
7545;SDS011;3814;51.454;12.616;2023-04-24T07:37:14;3.63;;;1.27;;
7545;SDS011;3814;51.454;12.616;2023-04-24T07:39:39;4.28;;;1.17;;
7545;SDS011;3814;51.454;12.616;2023-04-24T07:42:05;1.63;;;0.90;;
7545;SDS011;3814;51.454;12.616;2023-04-24T07:44:30;2.42;;;1.05;;
7545;SDS011;3814;51.454;12.616;2023-04-24T07:46:56;2.22;;;1.00;;
7545;SDS011;3814;51.454;12.616;2023-04-24T07:49:22;3.80;;;1.00;;
7545;SDS011;3814;51.454;12.616;2023-04-24T07:51:47;2.22;;;1.10;;
7545;SDS011;3814;51.454;12.616;2023-04-24T07:54:12;2.42;;;1.00;;
7545;SDS011;3814;51.454;12.616;2023-04-24T07:56:38;1.67;;;1.15;;
7545;SDS011;3814;51.454;12.616;2023-04-24T07:59:04;5.82;;;1.20;;
7545;SDS011;3814;51.454;12.616;2023-04-24T08:01:29;1.95;;;1.10;;
7545;SDS011;3814;51.454;12.616;2023-04-24T08:03:55;2.03;;;1.00;;
7545;SDS011;3814;51.454;12.616;2023-04-24T08:06:20;1.80;;;1.00;;
7545;SDS011;3814;51.454;12.616;2023-04-24T08:08:46;2.05;;;1.10;;
7545;SDS011;3814;51.454;12.616;2023-04-24T08:11:11;2.85;;;1.20;;
7545;SDS011;3814;51.454;12.616;2023-04-24T08:13:36;1.70;;;0.90;;
7545;SDS011;3814;51.454;12.616;2023-04-24T08:16:02;4.97;;;0.93;;
7545;SDS011;3814;51.454;12.616;2023-04-24T08:18:27;2.05;;;1.17;;
7545;SDS011;3814;51.454;12.616;2023-04-24T08:20:55;3.13;;;1.00;;
7545;SDS011;3814;51.454;12.616;2023-04-24T08:23:26;2.33;;;0.90;;
7545;SDS011;3814;51.454;12.616;2023-04-24T08:25:51;4.63;;;1.20;;
7545;SDS011;3814;51.454;12.616;2023-04-24T08:28:16;1.55;;;0.80;;
7545;SDS011;3814;51.454;12.616;2023-04-24T08:30:45;2.17;;;0.90;;
7545;SDS011;3814;51.454;12.616;2023-04-24T08:33:10;1.67;;;0.77;;
7545;SDS011;3814;51.454;12.616;2023-04-24T08:35:35;2.67;;;0.90;;
7545;SDS011;3814;51.454;12.616;2023-04-24T08:38:01;2.53;;;0.90;;
7545;SDS011;3814;51.454;12.616;2023-04-24T08:40:27;2.25;;;0.90;;
7545;SDS011;3814;51.454;12.616;2023-04-24T08:42:56;2.97;;;0.90;;
7545;SDS011;3814;51.454;12.616;2023-04-24T08:45:22;1.60;;;0.80;;
7545;SDS011;3814;51.454;12.616;2023-04-24T08:47:48;2.28;;;0.80;;
7545;SDS011;3814;51.454;12.616;2023-04-24T08:50:14;3.78;;;1.00;;
7545;SDS011;3814;51.454;12.616;2023-04-24T08:52:40;2.17;;;0.80;;
7545;SDS011;3814;51.454;12.616;2023-04-24T08:55:07;3.22;;;0.88;;
7545;SDS011;3814;51.454;12.616;2023-04-24T08:57:32;1.60;;;0.80;;
7545;SDS011;3814;51.454;12.616;2023-04-24T08:59:58;2.45;;;0.88;;
7545;SDS011;3814;51.454;12.616;2023-04-24T09:02:25;2.08;;;1.00;;
7545;SDS011;3814;51.454;12.616;2023-04-24T09:04:51;2.67;;;0.82;;
7545;SDS011;3814;51.454;12.616;2023-04-24T09:07:18;2.35;;;0.80;;
7545;SDS011;3814;51.454;12.616;2023-04-24T09:09:44;1.10;;;0.80;;
7545;SDS011;3814;51.454;12.616;2023-04-24T09:12:10;2.28;;;0.82;;
7545;SDS011;3814;51.454;12.616;2023-04-24T09:14:36;2.45;;;0.68;;
7545;SDS011;3814;51.454;12.616;2023-04-24T09:17:04;2.67;;;0.80;;
7545;SDS011;3814;51.454;12.616;2023-04-24T09:19:31;2.33;;;0.80;;
7545;SDS011;3814;51.454;12.616;2023-04-24T09:21:56;1.02;;;0.70;;
7545;SDS011;3814;51.454;12.616;2023-04-24T09:24:22;1.35;;;0.65;;
7545;SDS011;3814;51.454;12.616;2023-04-24T09:26:47;1.30;;;0.68;;
7545;SDS011;3814;51.454;12.616;2023-04-24T09:29:14;1.27;;;0.60;;
7545;SDS011;3814;51.454;12.616;2023-04-24T09:31:40;2.65;;;0.60;;
7545;SDS011;3814;51.454;12.616;2023-04-24T09:34:06;0.68;;;0.57;;
7545;SDS011;3814;51.454;12.616;2023-04-24T09:36:32;4.10;;;0.65;;
7545;SDS011;3814;51.454;12.616;2023-04-24T09:39:03;1.85;;;0.60;;
7545;SDS011;3814;51.454;12.616;2023-04-24T09:41:33;0.75;;;0.63;;
7545;SDS011;3814;51.454;12.616;2023-04-24T09:44:17;1.98;;;0.80;;
7545;SDS011;3814;51.454;12.616;2023-04-24T09:46:48;2.67;;;0.95;;
7545;SDS011;3814;51.454;12.616;2023-04-24T09:49:30;2.42;;;0.90;;
7545;SDS011;3814;51.454;12.616;2023-04-24T09:52:08;3.83;;;1.10;;
7545;SDS011;3814;51.454;12.616;2023-04-24T09:54:35;3.60;;;0.90;;
7545;SDS011;3814;51.454;12.616;2023-04-24T09:57:01;2.13;;;0.90;;
7545;SDS011;3814;51.454;12.616;2023-04-24T09:59:27;1.60;;;0.88;;
7545;SDS011;3814;51.454;12.616;2023-04-24T10:01:52;1.33;;;0.82;;
7545;SDS011;3814;51.454;12.616;2023-04-24T10:04:19;1.65;;;0.90;;
7545;SDS011;3814;51.454;12.616;2023-04-24T10:06:46;1.58;;;0.93;;
7545;SDS011;3814;51.454;12.616;2023-04-24T10:09:13;2.40;;;1.00;;
7545;SDS011;3814;51.454;12.616;2023-04-24T10:11:43;2.42;;;1.30;;
7545;SDS011;3814;51.454;12.616;2023-04-24T10:14:17;1.10;;;0.82;;
7545;SDS011;3814;51.454;12.616;2023-04-24T10:16:44;1.15;;;0.75;;
7545;SDS011;3814;51.454;12.616;2023-04-24T10:19:11;3.75;;;0.90;;
7545;SDS011;3814;51.454;12.616;2023-04-24T10:21:38;1.95;;;0.70;;
7545;SDS011;3814;51.454;12.616;2023-04-24T10:24:07;1.40;;;0.70;;
7545;SDS011;3814;51.454;12.616;2023-04-24T10:26:33;2.00;;;0.90;;
7545;SDS011;3814;51.454;12.616;2023-04-24T10:28:59;1.48;;;0.70;;
7545;SDS011;3814;51.454;12.616;2023-04-24T10:31:25;1.02;;;0.80;;
7545;SDS011;3814;51.454;12.616;2023-04-24T10:33:56;1.35;;;0.90;;
7545;SDS011;3814;51.454;12.616;2023-04-24T10:36:22;1.35;;;0.82;;
7545;SDS011;3814;51.454;12.616;2023-04-24T10:38:51;2.22;;;0.80;;
7545;SDS011;3814;51.454;12.616;2023-04-24T10:41:17;2.20;;;0.90;;
7545;SDS011;3814;51.454;12.616;2023-04-24T10:43:47;1.52;;;0.90;;
7545;SDS011;3814;51.454;12.616;2023-04-24T10:46:19;2.03;;;0.93;;
7545;SDS011;3814;51.454;12.616;2023-04-24T10:48:51;3.50;;;0.80;;
7545;SDS011;3814;51.454;12.616;2023-04-24T10:51:21;6.72;;;0.90;;
7545;SDS011;3814;51.454;12.616;2023-04-24T10:53:47;3.60;;;0.98;;
7545;SDS011;3814;51.454;12.616;2023-04-24T10:56:15;5.22;;;0.80;;
7545;SDS011;3814;51.454;12.616;2023-04-24T10:58:41;4.38;;;0.90;;
7545;SDS011;3814;51.454;12.616;2023-04-24T11:01:27;3.53;;;0.77;;
7545;SDS011;3814;51.454;12.616;2023-04-24T11:04:00;6.93;;;0.90;;
7545;SDS011;3814;51.454;12.616;2023-04-24T11:06:29;2.65;;;0.90;;
7545;SDS011;3814;51.454;12.616;2023-04-24T11:11:31;2.35;;;1.00;;
7545;SDS011;3814;51.454;12.616;2023-04-24T11:19:08;8.52;;;1.08;;
7545;SDS011;3814;51.454;12.616;2023-04-24T11:21:41;1.75;;;1.00;;
7545;SDS011;3814;51.454;12.616;2023-04-24T11:26:48;3.30;;;0.88;;
7545;SDS011;3814;51.454;12.616;2023-04-24T11:29:16;2.03;;;0.80;;
7545;SDS011;3814;51.454;12.616;2023-04-24T11:31:44;6.40;;;0.85;;
7545;SDS011;3814;51.454;12.616;2023-04-24T11:34:15;4.18;;;0.93;;
7545;SDS011;3814;51.454;12.616;2023-04-24T11:36:47;14.60;;;1.33;;
7545;SDS011;3814;51.454;12.616;2023-04-24T11:39:13;5.40;;;0.90;;
7545;SDS011;3814;51.454;12.616;2023-04-24T11:41:39;2.88;;;0.90;;
7545;SDS011;3814;51.454;12.616;2023-04-24T11:44:06;1.33;;;0.75;;
7545;SDS011;3814;51.454;12.616;2023-04-24T11:46:32;5.22;;;1.10;;
7545;SDS011;3814;51.454;12.616;2023-04-24T11:48:57;8.35;;;1.02;;
7545;SDS011;3814;51.454;12.616;2023-04-24T11:51:24;1.52;;;0.90;;
7545;SDS011;3814;51.454;12.616;2023-04-24T11:53:51;0.88;;;0.68;;
7545;SDS011;3814;51.454;12.616;2023-04-24T11:56:18;4.20;;;1.00;;
7545;SDS011;3814;51.454;12.616;2023-04-24T11:58:47;2.25;;;0.85;;
7545;SDS011;3814;51.454;12.616;2023-04-24T12:01:12;2.85;;;0.90;;
7545;SDS011;3814;51.454;12.616;2023-04-24T12:03:38;4.65;;;0.90;;
7545;SDS011;3814;51.454;12.616;2023-04-24T12:06:07;3.53;;;1.27;;
7545;SDS011;3814;51.454;12.616;2023-04-24T12:08:36;5.68;;;0.95;;
7545;SDS011;3814;51.454;12.616;2023-04-24T12:11:02;2.03;;;0.90;;
7545;SDS011;3814;51.454;12.616;2023-04-24T12:13:29;2.03;;;0.80;;
7545;SDS011;3814;51.454;12.616;2023-04-24T12:15:56;1.30;;;0.80;;
7545;SDS011;3814;51.454;12.616;2023-04-24T12:18:22;4.53;;;1.02;;
7545;SDS011;3814;51.454;12.616;2023-04-24T12:20:48;1.83;;;0.93;;
7545;SDS011;3814;51.454;12.616;2023-04-24T12:23:14;2.60;;;0.82;;
7545;SDS011;3814;51.454;12.616;2023-04-24T12:25:39;3.30;;;1.00;;
7545;SDS011;3814;51.454;12.616;2023-04-24T12:30:34;1.70;;;1.03;;
7545;SDS011;3814;51.454;12.616;2023-04-24T12:33:03;5.47;;;0.98;;
7545;SDS011;3814;51.454;12.616;2023-04-24T12:35:30;1.42;;;0.95;;
7545;SDS011;3814;51.454;12.616;2023-04-24T12:38:10;2.72;;;1.05;;
7545;SDS011;3814;51.454;12.616;2023-04-24T12:40:42;3.10;;;1.15;;
7545;SDS011;3814;51.454;12.616;2023-04-24T12:43:15;3.42;;;1.88;;
7545;SDS011;3814;51.454;12.616;2023-04-24T12:45:44;2.35;;;0.90;;
7545;SDS011;3814;51.454;12.616;2023-04-24T12:48:10;1.92;;;0.95;;
7545;SDS011;3814;51.454;12.616;2023-04-24T14:07:37;1.63;;;1.10;;
7545;SDS011;3814;51.454;12.616;2023-04-24T14:10:26;1.73;;;1.10;;
7545;SDS011;3814;51.454;12.616;2023-04-24T14:12:59;2.58;;;1.02;;
7545;SDS011;3814;51.454;12.616;2023-04-24T14:15:42;3.03;;;1.00;;
7545;SDS011;3814;51.454;12.616;2023-04-24T14:18:14;1.88;;;0.90;;
7545;SDS011;3814;51.454;12.616;2023-04-24T14:20:42;3.13;;;0.88;;
7545;SDS011;3814;51.454;12.616;2023-04-24T14:23:16;1.33;;;0.90;;
7545;SDS011;3814;51.454;12.616;2023-04-24T14:25:45;1.33;;;0.80;;
7545;SDS011;3814;51.454;12.616;2023-04-24T14:28:10;1.50;;;0.90;;
7545;SDS011;3814;51.454;12.616;2023-04-24T14:30:36;2.28;;;0.90;;
7545;SDS011;3814;51.454;12.616;2023-04-24T14:33:02;2.60;;;1.00;;
7545;SDS011;3814;51.454;12.616;2023-04-24T14:35:28;1.30;;;0.88;;
7545;SDS011;3814;51.454;12.616;2023-04-24T14:37:56;0.95;;;0.60;;
7545;SDS011;3814;51.454;12.616;2023-04-24T14:40:21;1.08;;;0.70;;
7545;SDS011;3814;51.454;12.616;2023-04-24T14:42:47;1.42;;;0.80;;
7545;SDS011;3814;51.454;12.616;2023-04-24T14:45:12;1.85;;;0.90;;
7545;SDS011;3814;51.454;12.616;2023-04-24T14:47:37;3.90;;;0.90;;
7545;SDS011;3814;51.454;12.616;2023-04-24T14:50:03;1.77;;;0.90;;
7545;SDS011;3814;51.454;12.616;2023-04-24T14:52:28;3.97;;;0.93;;
7545;SDS011;3814;51.454;12.616;2023-04-24T14:54:53;1.73;;;0.95;;
7545;SDS011;3814;51.454;12.616;2023-04-24T14:57:19;2.25;;;0.70;;
7545;SDS011;3814;51.454;12.616;2023-04-24T14:59:44;5.10;;;0.73;;
7545;SDS011;3814;51.454;12.616;2023-04-24T15:02:10;1.20;;;0.60;;
7545;SDS011;3814;51.454;12.616;2023-04-24T15:04:35;1.58;;;0.52;;
7545;SDS011;3814;51.454;12.616;2023-04-24T15:07:01;3.35;;;0.40;;
7545;SDS011;3814;51.454;12.616;2023-04-24T15:09:26;2.83;;;0.50;;
7545;SDS011;3814;51.454;12.616;2023-04-24T15:11:52;3.42;;;0.60;;
7545;SDS011;3814;51.454;12.616;2023-04-24T15:14:17;0.50;;;0.50;;
7545;SDS011;3814;51.454;12.616;2023-04-24T15:16:46;2.25;;;0.60;;
7545;SDS011;3814;51.454;12.616;2023-04-24T15:19:11;1.30;;;0.50;;
7545;SDS011;3814;51.454;12.616;2023-04-24T15:21:37;5.13;;;0.60;;
7545;SDS011;3814;51.454;12.616;2023-04-24T15:24:03;1.92;;;0.47;;
7545;SDS011;3814;51.454;12.616;2023-04-24T15:26:29;4.18;;;0.50;;
7545;SDS011;3814;51.454;12.616;2023-04-24T15:28:54;0.50;;;0.47;;
7545;SDS011;3814;51.454;12.616;2023-04-24T15:31:20;0.85;;;0.43;;
7545;SDS011;3814;51.454;12.616;2023-04-24T15:33:47;0.50;;;0.40;;
7545;SDS011;3814;51.454;12.616;2023-04-24T15:36:14;2.30;;;0.40;;
7545;SDS011;3814;51.454;12.616;2023-04-24T15:38:40;0.40;;;0.32;;
7545;SDS011;3814;51.454;12.616;2023-04-24T15:41:05;3.22;;;0.50;;
7545;SDS011;3814;51.454;12.616;2023-04-24T15:43:31;5.55;;;0.57;;
7545;SDS011;3814;51.454;12.616;2023-04-24T15:45:59;0.38;;;0.38;;
7545;SDS011;3814;51.454;12.616;2023-04-24T15:48:24;0.50;;;0.40;;
7545;SDS011;3814;51.454;12.616;2023-04-24T15:50:50;0.77;;;0.50;;
7545;SDS011;3814;51.454;12.616;2023-04-24T15:53:15;2.75;;;0.40;;
7545;SDS011;3814;51.454;12.616;2023-04-24T15:55:46;0.75;;;0.30;;
7545;SDS011;3814;51.454;12.616;2023-04-24T15:58:11;1.52;;;0.55;;
7545;SDS011;3814;51.454;12.616;2023-04-24T16:00:37;4.15;;;0.32;;
7545;SDS011;3814;51.454;12.616;2023-04-24T16:03:02;0.98;;;0.40;;
7545;SDS011;3814;51.454;12.616;2023-04-24T16:05:28;2.42;;;0.52;;
7545;SDS011;3814;51.454;12.616;2023-04-24T16:07:53;3.78;;;0.63;;
7545;SDS011;3814;51.454;12.616;2023-04-24T16:10:18;1.92;;;0.57;;
7545;SDS011;3814;51.454;12.616;2023-04-24T16:12:44;1.88;;;0.52;;
7545;SDS011;3814;51.454;12.616;2023-04-24T16:15:10;0.85;;;0.60;;
7545;SDS011;3814;51.454;12.616;2023-04-24T16:17:35;1.42;;;0.50;;
7545;SDS011;3814;51.454;12.616;2023-04-24T16:20:01;1.45;;;0.55;;
7545;SDS011;3814;51.454;12.616;2023-04-24T16:22:31;1.02;;;0.45;;
7545;SDS011;3814;51.454;12.616;2023-04-24T16:24:56;1.00;;;0.40;;
7545;SDS011;3814;51.454;12.616;2023-04-24T16:27:22;0.90;;;0.60;;